EW0050 Six Fours Les Plages FR current weather conditions

sailwx.info

Wind from 275

Air temperature 22.2° C
Dewpoint 19.9° C

Last reported at 2020-Aug-15 03:59 UTC.
Time now 2020-Aug-15 04:17 UTC

Location: N 43°06' E 005°50'.
View on Google Maps.

See reports from other nearby stations

  
Tides and Currents Weather Stations Pressure Air Temp Water Temp Dewpoint Dewpoint Depression Visibility Wind Speed Wind Dir Waves Ship Positions
date/time (UTC)wind fromknots sea level pressurealtimeterstation pressurevisibilityair tempwater tempwave heightnotes
2020-Aug-15 03:59 275 22.2
2020-Aug-15 03:29 274 22.8
2020-Aug-15 02:59 266 0 gusting 4 23.3
2020-Aug-15 02:29 257 2 gusting 4 23.9
2020-Aug-15 01:59 263 3 gusting 6 23.9
2020-Aug-15 01:29 275 3 gusting 6 23.9
2020-Aug-15 00:59 276 2 gusting 5 24.4
2020-Aug-15 00:29 275 2 gusting 6 25.0
2020-Aug-14 23:59 263 2 gusting 6 25.0
2020-Aug-14 23:29 252 0 gusting 3 25.0
2020-Aug-14 22:59 306 24.4
2020-Aug-14 22:29 280 0 gusting 1 24.4
2020-Aug-14 21:59 259 25.0
2020-Aug-14 21:29 258 0 gusting 3 25.0
2020-Aug-14 20:59 305 0 gusting 2 25.6
2020-Aug-14 20:29 303 1 gusting 3 24.4
2020-Aug-14 19:59 279 4 gusting 7 25.0
2020-Aug-14 19:29 309 4 gusting 9 25.0
2020-Aug-14 18:59 279 5 gusting 10 25.6
2020-Aug-14 18:29 263 4 gusting 10 25.6
2020-Aug-14 17:59 294 5 gusting 12 25.6
2020-Aug-14 17:29 273 4 gusting 8 26.1
2020-Aug-14 16:59 305 4 gusting 8 26.7
2020-Aug-14 16:29 227 6 gusting 10 27.2
2020-Aug-14 15:59 250 6 gusting 10 27.2
2020-Aug-14 15:29 272 6 gusting 13 27.2
2020-Aug-14 14:59 290 6 gusting 13 27.8
2020-Aug-14 14:29 263 6 gusting 13 27.8
2020-Aug-14 13:59 264 6 gusting 12 28.3
2020-Aug-14 13:29 278 6 gusting 14 28.3
2020-Aug-14 12:59 304 5 gusting 11 28.3
2020-Aug-14 12:29 272 8 gusting 13 28.3
2020-Aug-14 11:59 238 4 gusting 12 28.3
2020-Aug-14 11:29 263 7 gusting 10 28.3
2020-Aug-14 10:59 267 1 gusting 6 27.2
2020-Aug-14 10:29 249 6 gusting 8 27.2
2020-Aug-14 09:59 227 4 gusting 8 27.2
2020-Aug-14 09:29 269 4 gusting 6 26.1
2020-Aug-14 08:59 259 3 gusting 6 26.7
2020-Aug-14 08:29 239 3 gusting 6 26.7
2020-Aug-14 07:59 242 0 gusting 3 26.7
2020-Aug-14 07:29 250 0 gusting 2 26.1
2020-Aug-14 06:59 288 0 gusting 1 25.0
2020-Aug-14 06:29 288 22.8
2020-Aug-14 05:59 286 21.1
2020-Aug-14 05:29 286 20.6
2020-Aug-14 04:59 286 0 gusting 0 20.6
2020-Aug-14 04:29 286 20.6
2020-Aug-14 03:59 286 20.6
2020-Aug-14 03:29 286 21.1
2020-Aug-14 02:59 286 21.7
2020-Aug-14 02:29 286 22.2
2020-Aug-14 01:59 286 22.2
2020-Aug-14 01:29 286 22.2
2020-Aug-14 00:59 286 22.2
2020-Aug-14 00:29 286 22.2
2020-Aug-13 23:59 286 22.8
2020-Aug-13 22:59 285 22.8
2020-Aug-13 22:29 285 0 gusting 1 23.3
2020-Aug-13 21:59 284 23.3
2020-Aug-13 21:29 284 0 gusting 0 23.9
2020-Aug-13 20:59 284 0 gusting 0 24.4
2020-Aug-13 20:29 284 0 gusting 1 24.4
2020-Aug-13 19:59 276 1 gusting 2 25.0
2020-Aug-13 19:29 303 1 gusting 3 25.6
2020-Aug-13 18:59 275 2 gusting 4 26.7
2020-Aug-13 18:29 261 2 gusting 5 27.2
2020-Aug-13 17:59 243 0 gusting 1 27.8
2020-Aug-13 17:29 242 0 gusting 2 27.8
2020-Aug-13 16:59 250 2 gusting 5 27.8
2020-Aug-13 16:29 113 0 gusting 4 28.3
2020-Aug-13 15:59 094 1 gusting 4 29.4
2020-Aug-13 15:29 121 1 gusting 6 30.6
2020-Aug-13 14:59 159 1 gusting 7 31.1
2020-Aug-13 14:29 107 3 gusting 7 30.6
2020-Aug-13 13:59 094 2 gusting 6 30.6
2020-Aug-13 13:29 161 3 gusting 6 31.1
2020-Aug-13 12:59 163 3 gusting 7 30.6
2020-Aug-13 12:29 160 3 gusting 7 31.1
2020-Aug-13 11:59 180 3 gusting 9 31.7
2020-Aug-13 11:29 086 3 gusting 8 30.6
2020-Aug-13 10:59 124 3 gusting 11 30.0
2020-Aug-13 10:29 170 3 gusting 7 29.4
2020-Aug-13 09:59 129 6 gusting 9 30.0
2020-Aug-13 09:29 146 2 gusting 7 29.4
2020-Aug-13 08:59 112 3 gusting 8 28.9
2020-Aug-13 08:29 068 6 gusting 11 27.8
2020-Aug-13 07:59 117 2 gusting 7 27.8
2020-Aug-13 07:29 058 3 gusting 10 26.7
2020-Aug-13 06:59 078 3 gusting 15 26.1
2020-Aug-13 06:29 112 3 gusting 10 26.1
2020-Aug-13 05:59 039 3 gusting 6 25.6
2020-Aug-13 05:29 148 2 gusting 4 25.0
2020-Aug-13 04:59 072 3 gusting 7 25.0
2020-Aug-13 04:29 064 3 gusting 9 24.4